Time;durP1;ratioP1;P1;durP2;ratioP2;P2;SDS_P1;SDS_P2;PMS_P1;PMS_P2;Temp;Humidity;BMP_temperature;BMP_pressure;BME280_temperature;BME280_humidity;BME280_pressure;Samples;Min_cycle;Max_cycle;Signal;HPM_P1;HPM_P2
2022/08/03 00:00:14;;;;;;;9.30;8.57;;;18.70;99.90;;;;;;5018963;28;20218;-79
2022/08/03 00:02:40;;;;;;;7.67;7.17;;;18.70;99.90;;;;;;4994177;28;20184;-79
2022/08/03 00:05:07;;;;;;;9.20;8.70;;;18.70;99.90;;;;;;5012045;28;20187;-79
2022/08/03 00:07:33;;;;;;;10.30;9.47;;;18.70;99.90;;;;;;5010810;28;20204;-79
2022/08/03 00:09:59;;;;;;;10.27;9.57;;;18.60;99.90;;;;;;5011526;28;20234;-79
2022/08/03 00:12:25;;;;;;;14.50;13.50;;;18.50;99.90;;;;;;5011755;28;20531;-79
2022/08/03 00:14:51;;;;;;;33.43;31.17;;;18.40;99.90;;;;;;5012385;28;20190;-79
2022/08/03 00:17:17;;;;;;;47.33;44.93;;;18.40;99.90;;;;;;4994864;28;20182;-79
2022/08/03 00:19:43;;;;;;;48.03;45.47;;;18.40;99.90;;;;;;4998331;28;20657;-80
2022/08/03 00:22:09;;;;;;;39.90;37.73;;;18.40;99.90;;;;;;5016104;28;20214;-80
2022/08/03 00:24:35;;;;;;;49.30;46.60;;;18.40;99.90;;;;;;4998855;28;20229;-80
2022/08/03 00:27:01;;;;;;;41.67;39.42;;;18.40;99.90;;;;;;5016003;28;20688;-79
2022/08/03 00:29:27;;;;;;;61.43;58.23;;;18.30;99.90;;;;;;5015907;28;20249;-79
2022/08/03 00:31:53;;;;;;;59.93;56.70;;;18.30;99.90;;;;;;5016284;28;20200;-80
2022/08/03 00:34:19;;;;;;;62.50;59.17;;;18.30;99.90;;;;;;5001840;28;20251;-80
2022/08/03 00:36:44;;;;;;;64.87;61.47;;;18.20;99.90;;;;;;5001301;28;20176;-79
2022/08/03 00:39:11;;;;;;;68.60;64.83;;;18.20;99.90;;;;;;5017197;28;20191;-80
2022/08/03 00:41:36;;;;;;;54.33;51.47;;;18.10;99.90;;;;;;5016948;28;20569;-80
2022/08/03 00:44:02;;;;;;;62.00;58.80;;;18.10;99.90;;;;;;5016946;28;20187;-79
2022/08/03 00:46:28;;;;;;;61.60;58.50;;;18.00;99.90;;;;;;5017021;28;20278;-80
2022/08/03 00:48:54;;;;;;;62.90;59.53;;;18.00;99.90;;;;;;4998113;28;20302;-80
2022/08/03 00:51:21;;;;;;;60.17;57.13;;;18.00;99.90;;;;;;5022205;28;20234;-80
2022/08/03 00:53:47;;;;;;;56.90;54.05;;;17.90;99.90;;;;;;5014593;28;20212;-79
2022/08/03 00:56:14;;;;;;;61.50;58.47;;;18.00;99.90;;;;;;5000171;28;20186;-80
2022/08/03 00:58:42;;;;;;;65.20;61.93;;;18.00;99.90;;;;;;5015955;28;20684;-80
2022/08/03 01:01:08;;;;;;;55.03;52.30;;;17.90;99.90;;;;;;4998838;28;20217;-80
2022/08/03 01:03:34;;;;;;;80.27;76.10;;;18.00;99.90;;;;;;4998784;28;20195;-80
2022/08/03 01:06:21;;;;;;;94.83;90.13;;;18.00;99.90;;;;;;5016812;28;20192;-80
2022/08/03 01:08:53;;;;;;;79.60;75.50;;;18.00;99.90;;;;;;5016736;28;20219;-80
2022/08/03 01:11:50;;;;;;;122.17;115.93;;;18.00;99.90;;;;;;5016755;28;20302;-80
2022/08/03 01:14:59;;;;;;;110.67;105.13;;;18.00;99.90;;;;;;4993372;28;20227;-78
2022/08/03 01:17:35;;;;;;;62.33;59.00;;;17.90;99.90;;;;;;5014556;28;20206;-78
2022/08/03 01:20:08;;;;;;;31.23;29.63;;;17.80;99.90;;;;;;5014712;28;20337;-78
2022/08/03 01:22:49;;;;;;;23.23;21.90;;;17.70;99.90;;;;;;5036161;23;20305;-79
2022/08/03 01:25:39;;;;;;;17.40;16.47;;;17.70;99.90;;;;;;5020604;28;20552;-80
2022/08/03 01:28:18;;;;;;;15.83;14.50;;;17.70;99.90;;;;;;5021120;28;20299;-80
2022/08/03 01:30:46;;;;;;;8.17;7.50;;;17.60;99.90;;;;;;5019529;28;20199;-80
2022/08/03 01:33:20;;;;;;;8.73;8.23;;;17.70;99.90;;;;;;5019508;28;20188;-79
2022/08/03 01:35:51;;;;;;;7.80;7.40;;;17.60;99.90;;;;;;5021312;28;20180;-80
2022/08/03 01:38:23;;;;;;;7.63;7.03;;;17.60;99.90;;;;;;5020041;28;20235;-80
2022/08/03 01:40:53;;;;;;;8.53;8.03;;;17.60;99.90;;;;;;5019153;28;20209;-80
2022/08/03 01:43:23;;;;;;;8.83;8.23;;;17.50;99.90;;;;;;5018721;28;20180;-80
2022/08/03 01:45:50;;;;;;;12.07;11.17;;;17.50;99.90;;;;;;5018159;28;20203;-80
2022/08/03 01:48:17;;;;;;;12.23;11.10;;;17.50;99.90;;;;;;5017187;28;20619;-80
2022/08/03 01:50:46;;;;;;;15.50;14.30;;;17.50;99.90;;;;;;5019409;28;20334;-78
2022/08/03 01:53:15;;;;;;;15.10;14.33;;;17.50;99.90;;;;;;5021950;28;20191;-77
2022/08/03 01:55:46;;;;;;;20.83;19.50;;;17.50;99.90;;;;;;5021091;28;20184;-80
2022/08/03 01:58:14;;;;;;;11.00;10.43;;;17.50;99.90;;;;;;5019309;28;20266;-82
2022/08/03 02:00:40;;;;;;;13.50;12.73;;;17.50;99.90;;;;;;5022006;28;20172;-78
2022/08/03 02:03:08;;;;;;;15.20;14.43;;;17.40;99.90;;;;;;5019508;28;20187;-81
2022/08/03 02:05:36;;;;;;;22.27;21.10;;;17.40;99.90;;;;;;5019864;28;20271;-81
2022/08/03 02:08:04;;;;;;;31.50;29.90;;;17.30;99.90;;;;;;5016979;28;20187;-81
2022/08/03 02:10:31;;;;;;;51.33;48.63;;;17.30;99.90;;;;;;5017061;28;20186;-81
2022/08/03 02:13:00;;;;;;;77.27;73.40;;;17.30;99.90;;;;;;5016937;28;20218;-80
2022/08/03 02:15:29;;;;;;;103.23;98.00;;;17.20;99.90;;;;;;5017744;28;20214;-81
2022/08/03 02:17:57;;;;;;;209.57;198.97;;;17.10;99.90;;;;;;5026037;28;20845;-79
2022/08/03 02:20:24;;;;;;;195.93;186.07;;;17.10;99.90;;;;;;5027987;28;20184;-77
2022/08/03 02:22:50;;;;;;;247.60;235.17;;;17.10;99.90;;;;;;5020734;28;20192;-78
2022/08/03 02:25:16;;;;;;;267.83;254.37;;;17.10;99.90;;;;;;5020320;28;20202;-79
2022/08/03 02:27:50;;;;;;;254.87;241.97;;;17.10;99.90;;;;;;5019091;28;20566;-79
2022/08/03 02:30:16;;;;;;;232.20;220.70;;;17.10;99.90;;;;;;5021348;28;20188;-80
2022/08/03 02:32:52;;;;;;;237.40;225.63;;;17.00;99.90;;;;;;5019496;28;20237;-79
2022/08/03 02:35:21;;;;;;;208.57;197.77;;;17.00;99.90;;;;;;5019075;28;20568;-80
2022/08/03 02:37:52;;;;;;;154.67;147.00;;;16.90;99.90;;;;;;5016372;28;20261;-80
2022/08/03 02:40:19;;;;;;;146.60;139.17;;;16.90;99.90;;;;;;5019725;28;20652;-80
2022/08/03 02:42:48;;;;;;;106.77;101.50;;;16.90;99.90;;;;;;5017462;28;20460;-80
2022/08/03 02:45:17;;;;;;;111.63;106.03;;;16.90;99.90;;;;;;5018391;28;20271;-79
2022/08/03 02:47:44;;;;;;;88.07;83.53;;;16.90;99.90;;;;;;5018748;28;20186;-80
2022/08/03 02:50:12;;;;;;;84.17;79.97;;;16.90;99.90;;;;;;5017368;28;20441;-80
2022/08/03 02:52:39;;;;;;;70.07;66.53;;;17.00;99.90;;;;;;5017255;28;20489;-79
2022/08/03 02:55:08;;;;;;;64.83;61.47;;;17.00;99.90;;;;;;5017884;28;20207;-77
2022/08/03 02:57:36;;;;;;;76.47;72.50;;;17.00;99.90;;;;;;5017504;28;20707;-78
2022/08/03 03:00:04;;;;;;;67.07;63.27;;;16.90;99.90;;;;;;5018572;28;20716;-79
2022/08/03 03:02:30;;;;;;;55.70;52.77;;;16.90;99.90;;;;;;5016694;28;20223;-78
2022/08/03 03:04:58;;;;;;;59.77;56.70;;;16.90;99.90;;;;;;5016230;28;20279;-79
2022/08/03 03:07:25;;;;;;;53.50;50.50;;;16.90;99.90;;;;;;5014282;28;20172;-78
2022/08/03 03:09:52;;;;;;;56.23;53.33;;;16.90;99.90;;;;;;5015238;28;20278;-78
2022/08/03 03:12:19;;;;;;;61.17;57.40;;;16.80;99.90;;;;;;5019433;28;20202;-79
2022/08/03 03:14:46;;;;;;;69.03;65.30;;;16.70;99.90;;;;;;5017005;28;20560;-80
2022/08/03 03:17:15;;;;;;;65.60;62.07;;;16.60;99.90;;;;;;5016655;28;20175;-79
2022/08/03 03:19:44;;;;;;;74.50;70.63;;;16.60;99.90;;;;;;5018825;28;20208;-79
2022/08/03 03:22:11;;;;;;;98.30;93.37;;;16.50;99.90;;;;;;5020033;28;20625;-78
2022/08/03 03:24:40;;;;;;;104.03;98.67;;;16.50;99.90;;;;;;5021710;28;20231;-80
2022/08/03 03:27:07;;;;;;;90.50;85.90;;;16.50;99.90;;;;;;5017336;28;20179;-80
2022/08/03 03:29:33;;;;;;;98.17;93.23;;;16.50;99.90;;;;;;5018252;28;20198;-78
2022/08/03 03:32:01;;;;;;;102.40;97.27;;;16.40;99.90;;;;;;5019412;28;20208;-80
2022/08/03 03:34:29;;;;;;;105.40;99.80;;;16.40;99.90;;;;;;5016745;28;20189;-79
2022/08/03 03:36:55;;;;;;;111.17;105.37;;;16.40;99.90;;;;;;5016156;28;20207;-78
2022/08/03 03:39:21;;;;;;;143.10;135.33;;;16.40;99.90;;;;;;5016221;28;20208;-79
2022/08/03 03:41:47;;;;;;;139.40;132.03;;;16.40;99.90;;;;;;5017451;28;20639;-79
2022/08/03 03:44:14;;;;;;;139.97;132.70;;;16.40;99.90;;;;;;5016723;28;20180;-80
2022/08/03 03:46:40;;;;;;;123.63;117.13;;;16.50;99.90;;;;;;5019561;28;20175;-78
2022/08/03 03:49:07;;;;;;;103.77;98.23;;;16.50;99.90;;;;;;5019544;28;20179;-80
2022/08/03 03:51:33;;;;;;;100.40;95.07;;;16.40;99.90;;;;;;5018897;28;20219;-79
2022/08/03 03:54:01;;;;;;;96.20;91.13;;;16.40;99.90;;;;;;5017409;28;20183;-80
2022/08/03 03:56:27;;;;;;;98.73;93.70;;;16.30;99.90;;;;;;5017106;28;20246;-80
2022/08/03 03:58:55;;;;;;;118.57;112.43;;;16.30;99.90;;;;;;5018653;28;20199;-78
2022/08/03 04:01:21;;;;;;;116.17;110.07;;;16.30;99.90;;;;;;5027136;28;20226;-78
2022/08/03 04:03:47;;;;;;;102.53;97.27;;;16.20;99.90;;;;;;5018687;28;20191;-80
2022/08/03 04:11:57;;;;;;;65.80;62.37;;;16.20;99.90;;;;;;5016547;28;20216;-80
2022/08/03 04:14:32;;;;;;;52.40;49.50;;;16.20;99.90;;;;;;5014875;28;20187;-79
2022/08/03 04:17:03;;;;;;;43.27;41.03;;;16.20;99.90;;;;;;5013414;28;20179;-79
2022/08/03 04:19:34;;;;;;;41.83;39.50;;;16.20;99.90;;;;;;5014428;28;20211;-80
2022/08/03 04:22:05;;;;;;;50.27;47.47;;;16.30;99.90;;;;;;5014533;28;20208;-79
2022/08/03 04:24:40;;;;;;;64.07;60.70;;;16.40;99.90;;;;;;5016925;28;20176;-80
2022/08/03 04:27:10;;;;;;;63.07;59.83;;;16.40;99.90;;;;;;5016002;28;20718;-80
2022/08/03 04:29:40;;;;;;;68.63;65.03;;;16.50;99.90;;;;;;5014900;28;20186;-81
2022/08/03 04:32:07;;;;;;;89.00;84.40;;;16.50;99.90;;;;;;5014270;28;20258;-79
2022/08/03 04:34:34;;;;;;;96.63;91.80;;;16.50;99.90;;;;;;5028000;28;20195;-78
2022/08/03 04:37:07;;;;;;;121.23;115.00;;;16.60;99.90;;;;;;5027238;28;20192;-78
2022/08/03 04:39:35;;;;;;;152.50;144.73;;;16.70;99.90;;;;;;5017790;28;20224;-80
2022/08/03 04:42:05;;;;;;;227.27;215.47;;;16.80;99.90;;;;;;5015778;28;20199;-80
2022/08/03 04:44:36;;;;;;;285.67;270.57;;;16.80;99.90;;;;;;5017480;28;20582;-80
2022/08/03 04:47:02;;;;;;;334.43;315.90;;;16.80;99.90;;;;;;5022206;28;20308;-81
2022/08/03 04:49:29;;;;;;;256.07;242.47;;;16.90;99.90;;;;;;5020505;28;20190;-82
2022/08/03 04:51:55;;;;;;;183.23;173.07;;;17.00;99.90;;;;;;5020575;28;20203;-81
2022/08/03 04:54:21;;;;;;;60.80;57.27;;;17.10;99.90;;;;;;5018175;28;20184;-81
2022/08/03 04:56:48;;;;;;;29.70;27.80;;;17.20;99.90;;;;;;5018002;28;20187;-79
2022/08/03 04:59:13;;;;;;;16.13;15.13;;;17.30;99.90;;;;;;5016059;28;20765;-80
2022/08/03 05:01:41;;;;;;;23.17;21.60;;;17.40;99.90;;;;;;5023374;28;20200;-77
2022/08/03 05:04:07;;;;;;;56.47;53.27;;;17.50;99.90;;;;;;5018892;28;20506;-80
2022/08/03 05:06:33;;;;;;;112.20;106.40;;;17.60;99.90;;;;;;5021166;28;20185;-79
2022/08/03 05:08:59;;;;;;;85.00;80.67;;;17.70;99.90;;;;;;5029090;28;20211;-79
2022/08/03 05:11:25;;;;;;;17.83;16.53;;;17.90;99.90;;;;;;5024264;28;20214;-81
2022/08/03 05:13:51;;;;;;;17.53;16.63;;;18.10;99.90;;;;;;5020733;28;20308;-80
2022/08/03 05:16:17;;;;;;;114.13;108.33;;;18.50;99.90;;;;;;5021582;28;20672;-80
2022/08/03 05:18:44;;;;;;;20.75;19.42;;;18.90;99.90;;;;;;5019612;28;20294;-80
2022/08/03 05:21:15;;;;;;;29.30;27.60;;;19.50;99.90;;;;;;5019873;28;20211;-80
2022/08/03 05:23:43;;;;;;;14.75;14.00;;;20.10;99.90;;;;;;5020138;28;20387;-80
2022/08/03 05:26:10;;;;;;;9.32;8.63;;;20.80;99.90;;;;;;5019889;28;20176;-80
2022/08/03 05:28:37;;;;;;;10.65;10.05;;;21.40;99.90;;;;;;5018168;28;20188;-80
2022/08/03 05:31:03;;;;;;;11.23;10.52;;;22.00;99.90;;;;;;5021637;28;20322;-79
2022/08/03 05:33:29;;;;;;;6.90;6.38;;;22.40;99.90;;;;;;5023906;28;20668;-80
2022/08/03 05:35:55;;;;;;;9.40;8.75;;;22.80;99.90;;;;;;5020418;28;20203;-81
2022/08/03 05:38:22;;;;;;;15.20;14.30;;;23.10;99.90;;;;;;5019054;28;20207;-80
2022/08/03 05:40:48;;;;;;;37.50;35.58;;;23.30;99.90;;;;;;5018625;28;20191;-80
2022/08/03 05:43:13;;;;;;;37.00;34.90;;;23.80;99.90;;;;;;5018612;28;20241;-81
2022/08/03 05:45:40;;;;;;;19.38;18.45;;;23.90;99.90;;;;;;5018558;28;20286;-79
2022/08/03 05:48:06;;;;;;;9.25;8.75;;;24.40;99.90;;;;;;5016892;28;20258;-80
2022/08/03 05:50:31;;;;;;;13.05;12.43;;;24.60;99.90;;;;;;5017620;28;20191;-81
2022/08/03 05:52:58;;;;;;;20.92;19.75;;;24.50;99.90;;;;;;5020456;28;20180;-80
2022/08/03 05:55:24;;;;;;;30.10;28.42;;;24.70;99.90;;;;;;5022541;28;20179;-79
2022/08/03 05:57:50;;;;;;;28.38;26.77;;;24.90;99.90;;;;;;5025936;28;20238;-78
2022/08/03 06:00:16;;;;;;;23.80;22.42;;;25.50;99.90;;;;;;5028609;28;20187;-80
2022/08/03 06:02:42;;;;;;;10.15;9.57;;;25.90;99.90;;;;;;5019751;28;20207;-80
2022/08/03 06:05:09;;;;;;;8.50;6.28;;;25.90;99.90;;;;;;5020755;28;20435;-80
2022/08/03 06:07:35;;;;;;;5.22;4.82;;;26.10;99.90;;;;;;5019494;28;20179;-80
2022/08/03 06:10:02;;;;;;;5.68;5.30;;;26.20;99.90;;;;;;5020184;28;20176;-78
2022/08/03 06:12:29;;;;;;;6.10;5.47;;;26.30;99.90;;;;;;5020160;28;20236;-80
2022/08/03 06:14:55;;;;;;;5.47;4.97;;;26.60;99.90;;;;;;5021007;28;20172;-79
2022/08/03 06:17:21;;;;;;;5.32;5.00;;;26.80;99.90;;;;;;5016456;28;20230;-78
2022/08/03 06:19:47;;;;;;;8.45;7.95;;;26.90;99.90;;;;;;5019475;28;20310;-79
2022/08/03 06:22:13;;;;;;;9.80;9.02;;;27.10;99.90;;;;;;5023473;28;20573;-78
2022/08/03 06:24:39;;;;;;;17.30;15.95;;;27.20;99.90;;;;;;5025121;28;20652;-80
2022/08/03 06:27:04;;;;;;;21.17;20.08;;;27.10;99.90;;;;;;5018057;28;20247;-80
2022/08/03 06:29:30;;;;;;;20.77;19.30;;;27.30;99.90;;;;;;5017727;28;20211;-80
2022/08/03 06:31:56;;;;;;;13.75;12.82;;;27.60;98.80;;;;;;5017543;28;20206;-80
2022/08/03 06:34:22;;;;;;;11.40;10.80;;;27.80;98.60;;;;;;5021978;28;20206;-79
2022/08/03 06:36:49;;;;;;;8.18;7.78;;;28.20;97.60;;;;;;5016356;28;20184;-79
2022/08/03 06:39:16;;;;;;;7.78;7.28;;;28.10;97.60;;;;;;5026731;28;20275;-79
2022/08/03 06:41:43;;;;;;;9.00;8.50;;;28.40;97.50;;;;;;5032533;28;20200;-79
2022/08/03 06:44:08;;;;;;;16.25;15.25;;;28.80;96.50;;;;;;5033081;28;20172;-79
2022/08/03 06:46:34;;;;;;;15.00;14.20;;;28.80;95.60;;;;;;5026540;28;20180;-81
2022/08/03 06:49:00;;;;;;;16.48;15.25;;;28.80;95.70;;;;;;5020279;28;20184;-80
2022/08/03 06:51:26;;;;;;;13.43;12.52;;;28.50;96.00;;;;;;5020344;28;20706;-80
2022/08/03 06:53:52;;;;;;;9.27;8.77;;;28.70;95.40;;;;;;5017590;28;20243;-80
2022/08/03 06:56:19;;;;;;;11.85;10.88;;;28.70;95.60;;;;;;5017065;28;20179;-80
2022/08/03 06:58:46;;;;;;;11.90;11.20;;;29.10;95.70;;;;;;5015295;28;20235;-79
2022/08/03 07:01:12;;;;;;;13.30;12.60;;;29.60;94.00;;;;;;5016262;28;20224;-80
2022/08/03 07:03:39;;;;;;;8.65;7.90;;;29.40;94.00;;;;;;5016934;28;20206;-80
2022/08/03 07:06:06;;;;;;;8.20;7.72;;;29.40;94.20;;;;;;5021209;28;20179;-78
2022/08/03 07:08:32;;;;;;;9.57;8.98;;;29.80;93.30;;;;;;5015860;28;20179;-79
2022/08/03 07:10:58;;;;;;;9.02;8.50;;;30.10;93.00;;;;;;5015441;28;20268;-80
2022/08/03 07:13:23;;;;;;;7.25;6.82;;;30.40;92.30;;;;;;5015357;28;20565;-79
2022/08/03 07:15:49;;;;;;;7.63;7.15;;;30.30;92.10;;;;;;5017053;28;20187;-80
2022/08/03 07:18:15;;;;;;;7.45;6.95;;;30.70;91.40;;;;;;5014886;28;20762;-80
2022/08/03 07:20:41;;;;;;;6.60;6.10;;;30.70;91.10;;;;;;5017124;28;20176;-78
2022/08/03 07:23:07;;;;;;;7.38;6.90;;;30.70;90.70;;;;;;5047416;23;20245;-85
2022/08/03 07:25:32;;;;;;;11.55;10.75;;;31.00;90.80;;;;;;5020641;28;20229;-85
2022/08/03 07:27:58;;;;;;;16.73;15.20;;;31.30;90.20;;;;;;5026163;28;20183;-85
2022/08/03 07:30:24;;;;;;;31.08;29.33;;;31.50;89.60;;;;;;5016570;28;20183;-85
2022/08/03 07:32:50;;;;;;;34.83;32.95;;;31.60;89.60;;;;;;5015892;28;20195;-85
2022/08/03 07:35:16;;;;;;;36.83;34.97;;;32.00;86.80;;;;;;5017001;28;20186;-85
2022/08/03 07:37:42;;;;;;;36.40;34.53;;;31.70;86.80;;;;;;5036749;28;20183;-85
2022/08/03 07:40:09;;;;;;;40.40;38.45;;;31.80;86.10;;;;;;5018405;28;20179;-85
2022/08/03 07:42:35;;;;;;;33.83;32.17;;;31.90;85.60;;;;;;5018931;28;20336;-85
2022/08/03 07:45:01;;;;;;;38.50;36.55;;;32.00;84.60;;;;;;5039050;28;20190;-85
2022/08/03 07:47:29;;;;;;;30.00;28.35;;;32.00;84.20;;;;;;5020251;28;20411;-85
2022/08/03 07:49:55;;;;;;;34.42;32.70;;;32.00;83.90;;;;;;5020729;28;20740;-85
2022/08/03 07:55:07;;;;;;;32.08;30.30;;;32.30;83.90;;;;;;5046565;28;20187;-86
2022/08/03 07:57:33;;;;;;;28.70;26.75;;;32.50;83.10;;;;;;5056138;28;20205;-86
2022/08/03 07:59:59;;;;;;;22.38;21.02;;;32.70;83.20;;;;;;5039684;28;20206;-85
2022/08/03 08:02:26;;;;;;;22.67;21.58;;;32.90;80.60;;;;;;5028653;28;20533;-85
2022/08/03 08:04:51;;;;;;;19.52;18.58;;;32.70;80.00;;;;;;5020512;28;20190;-85
2022/08/03 08:07:17;;;;;;;14.57;13.90;;;33.10;79.20;;;;;;5021655;28;20557;-85
2022/08/03 08:09:43;;;;;;;21.45;20.38;;;32.80;78.40;;;;;;5021083;28;20224;-85
2022/08/03 08:12:11;;;;;;;36.28;34.35;;;32.90;78.20;;;;;;5039639;28;20229;-85
2022/08/03 08:14:37;;;;;;;34.90;32.65;;;33.10;76.60;;;;;;5039054;28;20187;-85
2022/08/03 08:17:04;;;;;;;35.83;33.92;;;33.10;75.60;;;;;;5021174;28;20196;-85
2022/08/03 08:19:30;;;;;;;29.00;27.60;;;33.00;76.30;;;;;;5039012;28;20266;-85
2022/08/03 08:21:56;;;;;;;20.02;19.02;;;32.90;76.10;;;;;;5021313;28;20210;-85
2022/08/03 08:24:22;;;;;;;63.88;60.75;;;33.30;76.10;;;;;;5020932;28;20182;-85
2022/08/03 08:26:48;;;;;;;146.80;139.60;;;33.60;74.50;;;;;;5024405;28;20654;-85
2022/08/03 08:29:14;;;;;;;188.23;179.13;;;33.70;72.80;;;;;;5022687;28;20210;-85
2022/08/03 08:31:39;;;;;;;325.95;308.95;;;33.90;72.70;;;;;;5039615;28;20565;-85
2022/08/03 08:34:06;;;;;;;343.95;326.25;;;34.30;71.50;;;;;;5038485;28;20236;-85
2022/08/03 08:36:33;;;;;;;455.38;430.00;;;34.60;72.30;;;;;;5021006;28;20636;-85
2022/08/03 08:38:59;;;;;;;482.45;455.08;;;34.60;69.10;;;;;;5020096;28;20209;-85
2022/08/03 08:41:25;;;;;;;531.58;500.05;;;34.60;70.70;;;;;;5023577;28;20203;-85
2022/08/03 08:43:52;;;;;;;539.47;507.60;;;34.70;69.10;;;;;;5023839;28;20198;-85
2022/08/03 08:46:19;;;;;;;554.83;521.60;;;34.80;67.40;;;;;;5022519;28;20233;-85
2022/08/03 08:48:47;;;;;;;541.72;509.35;;;34.60;69.00;;;;;;5027458;28;20211;-85
2022/08/03 08:51:14;;;;;;;569.85;535.22;;;34.40;67.80;;;;;;5026660;28;20639;-85
2022/08/03 08:53:44;;;;;;;548.88;515.92;;;34.70;66.00;;;;;;5025407;28;20778;-85
2022/08/03 08:56:16;;;;;;;566.70;532.35;;;34.80;66.70;;;;;;5042624;28;20205;-85
2022/08/03 08:58:51;;;;;;;547.33;514.53;;;35.20;66.20;;;;;;5040646;28;20187;-85
2022/08/03 09:01:20;;;;;;;554.42;521.60;;;35.60;63.80;;;;;;5040553;28;20211;-84
2022/08/03 09:03:47;;;;;;;446.38;421.13;;;35.80;63.70;;;;;;5021883;28;20182;-84
2022/08/03 09:06:14;;;;;;;459.70;433.92;;;35.90;59.90;;;;;;5048557;28;20183;-84
2022/08/03 09:08:40;;;;;;;530.70;499.52;;;34.70;59.50;;;;;;5034181;28;20207;-84
2022/08/03 09:11:06;;;;;;;516.25;486.05;;;34.10;61.60;;;;;;5019945;28;20278;-84
2022/08/03 09:13:33;;;;;;;522.72;492.25;;;34.40;59.90;;;;;;5042581;28;20174;-84
2022/08/03 09:16:12;;;;;;;525.65;494.98;;;34.60;60.50;;;;;;5037248;28;20187;-85
2022/08/03 09:18:39;;;;;;;487.30;459.27;;;34.40;60.30;;;;;;5023164;28;20210;-84
2022/08/03 09:21:18;;;;;;;526.13;495.77;;;34.40;59.90;;;;;;5026312;28;20274;-85
2022/08/03 09:23:56;;;;;;;439.98;415.83;;;34.40;59.10;;;;;;5033998;28;20186;-85
2022/08/03 09:26:25;;;;;;;462.30;436.38;;;34.40;57.40;;;;;;5025425;28;20667;-85
2022/08/03 09:29:00;;;;;;;454.10;428.95;;;34.80;56.90;;;;;;5023883;28;20760;-82
2022/08/03 09:31:59;;;;;;;402.80;380.90;;;35.30;56.00;;;;;;5023453;28;20270;-84
2022/08/03 09:34:27;;;;;;;326.75;309.80;;;35.60;53.70;;;;;;5022020;28;20628;-85
2022/08/03 09:36:54;;;;;;;318.48;302.02;;;35.40;54.10;;;;;;5022096;28;20186;-85
2022/08/03 09:39:22;;;;;;;327.23;310.33;;;35.70;53.80;;;;;;5033608;28;20234;-84
2022/08/03 09:42:05;;;;;;;364.75;345.25;;;35.50;53.40;;;;;;5038331;28;20217;-85
2022/08/03 09:44:36;;;;;;;464.10;437.90;;;35.50;54.00;;;;;;5023628;28;20225;-85
2022/08/03 09:47:04;;;;;;;341.92;324.20;;;35.50;54.60;;;;;;5023529;28;20191;-85
2022/08/03 09:49:30;;;;;;;357.58;338.55;;;35.90;53.30;;;;;;5021038;28;20219;-84
2022/08/03 09:52:11;;;;;;;398.60;377.15;;;35.60;53.90;;;;;;5018748;28;20199;-84
2022/08/03 09:54:37;;;;;;;400.30;378.55;;;35.20;54.40;;;;;;5024126;28;20183;-85
2022/08/03 09:57:04;;;;;;;444.95;420.15;;;34.90;54.80;;;;;;5024328;28;20182;-85
2022/08/03 09:59:32;;;;;;;362.35;343.00;;;34.90;56.20;;;;;;5024040;28;20241;-85
2022/08/03 10:01:59;;;;;;;308.13;292.15;;;35.30;54.60;;;;;;5022266;28;20205;-85
2022/08/03 10:04:25;;;;;;;266.52;253.63;;;35.60;54.00;;;;;;5021069;28;20687;-85
2022/08/03 10:07:09;;;;;;;205.13;195.30;;;35.70;53.30;;;;;;5037369;28;20606;-84
2022/08/03 10:09:36;;;;;;;206.43;196.60;;;35.80;52.30;;;;;;5021580;28;20230;-84
2022/08/03 10:12:09;;;;;;;292.20;277.30;;;35.80;53.20;;;;;;5020525;28;20199;-85
2022/08/03 10:14:38;;;;;;;313.70;297.98;;;35.60;53.60;;;;;;5022270;28;20199;-84
2022/08/03 10:17:04;;;;;;;382.55;361.92;;;35.70;53.30;;;;;;5038731;28;20178;-84
2022/08/03 10:19:30;;;;;;;287.90;273.52;;;36.20;54.00;;;;;;5022583;28;20233;-84
2022/08/03 10:22:01;;;;;;;144.32;137.45;;;37.10;52.10;;;;;;5022008;28;20219;-83
2022/08/03 10:24:29;;;;;;;107.15;102.18;;;37.70;50.70;;;;;;5021851;28;20187;-84
2022/08/03 10:27:04;;;;;;;113.00;107.72;;;38.20;49.70;;;;;;5020186;28;20270;-84
2022/08/03 10:29:37;;;;;;;80.32;76.47;;;38.20;49.40;;;;;;5021015;28;20210;-84
2022/08/03 10:32:08;;;;;;;53.67;51.03;;;38.50;48.40;;;;;;5020923;28;20249;-84
2022/08/03 10:34:38;;;;;;;74.60;71.10;;;38.50;47.70;;;;;;5020667;28;20241;-84
2022/08/03 10:37:10;;;;;;;90.20;85.95;;;37.80;48.70;;;;;;5019472;28;20179;-84
2022/08/03 10:39:36;;;;;;;148.98;141.95;;;37.40;49.10;;;;;;5020092;28;20281;-83
2022/08/03 10:42:04;;;;;;;92.93;88.07;;;37.50;49.20;;;;;;5027054;28;20207;-85
2022/08/03 10:44:36;;;;;;;49.20;46.88;;;37.70;47.90;;;;;;5044800;28;20191;-85
2022/08/03 10:47:03;;;;;;;50.03;47.53;;;37.90;48.40;;;;;;5035709;28;20217;-84
2022/08/03 10:49:31;;;;;;;24.67;23.52;;;38.00;48.80;;;;;;5053492;28;20219;-84
2022/08/03 10:51:57;;;;;;;17.17;16.40;;;38.20;47.80;;;;;;5008712;28;20687;-85
2022/08/03 10:57:33;;;;;;;11.27;10.65;;;38.30;48.30;;;;;;5022482;28;20269;-84
2022/08/03 10:57:45;;;;;;;2.90;2.80;;;38.50;46.60;;;;;;5037035;28;20190;-84
2022/08/03 11:00:14;;;;;;;4.03;3.35;;;38.90;47.20;;;;;;5019330;28;20189;-84
2022/08/03 11:03:07;;;;;;;4.38;3.83;;;39.30;46.60;;;;;;5018514;28;20671;-84
2022/08/03 11:05:48;;;;;;;3.05;2.85;;;39.70;45.60;;;;;;5030779;28;20179;-84
2022/08/03 11:08:26;;;;;;;3.08;2.97;;;40.00;44.40;;;;;;5023876;28;20222;-84
2022/08/03 11:10:55;;;;;;;3.42;3.22;;;40.10;44.50;;;;;;5022580;28;20272;-85
2022/08/03 11:13:23;;;;;;;3.20;3.08;;;40.00;44.60;;;;;;5040400;28;20264;-85
2022/08/03 11:15:52;;;;;;;3.65;3.45;;;39.40;44.60;;;;;;5024698;28;20179;-84
2022/08/03 11:18:18;;;;;;;3.72;3.58;;;39.00;44.70;;;;;;5033664;28;20206;-84
2022/08/03 11:20:50;;;;;;;3.90;3.80;;;39.30;44.10;;;;;;5045904;28;20789;-85
2022/08/03 11:23:18;;;;;;;3.22;3.13;;;39.00;44.60;;;;;;5043447;28;20730;-85
2022/08/03 11:26:10;;;;;;;3.63;3.53;;;39.70;43.70;;;;;;5025688;28;20559;-85
2022/08/03 11:28:37;;;;;;;3.92;3.72;;;40.50;42.60;;;;;;5023930;28;20198;-85
2022/08/03 11:31:21;;;;;;;3.30;3.10;;;40.90;41.60;;;;;;5022028;28;20182;-84
2022/08/03 11:34:04;;;;;;;3.30;3.00;;;41.20;42.50;;;;;;5017884;28;20186;-85
2022/08/03 11:36:50;;;;;;;3.45;3.35;;;40.70;41.90;;;;;;5020846;28;20246;-84
2022/08/03 11:39:16;;;;;;;3.05;2.92;;;40.20;42.70;;;;;;5019180;28;20193;-85
2022/08/03 11:41:42;;;;;;;3.33;3.22;;;39.60;43.60;;;;;;5037264;28;20202;-84
2022/08/03 11:44:08;;;;;;;2.70;2.60;;;39.30;43.80;;;;;;5021451;28;20197;-85
2022/08/03 11:46:38;;;;;;;3.05;2.95;;;39.70;43.70;;;;;;5021842;28;20782;-84
2022/08/03 11:49:06;;;;;;;2.80;2.70;;;40.10;42.50;;;;;;5020730;28;20417;-84
2022/08/03 11:51:32;;;;;;;2.55;2.45;;;40.80;43.20;;;;;;5025301;28;20183;-85
2022/08/03 11:54:03;;;;;;;3.13;3.03;;;40.90;41.50;;;;;;5039816;28;20214;-85
2022/08/03 11:56:47;;;;;;;3.20;2.53;;;41.00;41.30;;;;;;5033350;28;20183;-84
2022/08/03 11:59:13;;;;;;;2.58;2.20;;;41.50;40.70;;;;;;5040896;28;20187;-84
2022/08/03 12:01:39;;;;;;;3.47;2.67;;;41.70;40.60;;;;;;5039844;28;20203;-84
2022/08/03 12:04:06;;;;;;;2.78;2.67;;;41.40;38.90;;;;;;5021908;28;20209;-84
2022/08/03 12:06:53;;;;;;;3.20;3.00;;;40.80;39.50;;;;;;5038295;28;20183;-84
2022/08/03 12:09:18;;;;;;;3.08;2.97;;;40.80;39.80;;;;;;5035489;28;20221;-84
2022/08/03 12:11:48;;;;;;;2.90;2.80;;;41.40;39.70;;;;;;5018319;28;20191;-83
2022/08/03 12:14:18;;;;;;;2.63;2.53;;;41.70;39.60;;;;;;5036071;28;20175;-84
2022/08/03 12:16:47;;;;;;;3.50;3.40;;;42.20;39.10;;;;;;5040017;28;20218;-84
2022/08/03 12:19:14;;;;;;;3.58;3.28;;;42.40;37.90;;;;;;5046812;28;20182;-83
2022/08/03 12:21:50;;;;;;;4.43;4.07;;;43.00;36.50;;;;;;5042097;28;20771;-83
2022/08/03 12:24:16;;;;;;;3.53;3.42;;;43.10;36.40;;;;;;5018655;28;20179;-83
2022/08/03 12:26:45;;;;;;;3.22;3.13;;;42.30;36.90;;;;;;5018785;28;20270;-83
2022/08/03 12:29:21;;;;;;;2.70;2.60;;;41.50;38.60;;;;;;5019200;28;20269;-83
2022/08/03 12:31:48;;;;;;;3.60;3.40;;;40.80;39.10;;;;;;5019711;28;20638;-83
2022/08/03 12:34:15;;;;;;;3.53;3.33;;;41.60;38.60;;;;;;5019378;28;20180;-83
2022/08/03 12:36:58;;;;;;;3.58;3.38;;;42.00;37.50;;;;;;5020926;28;20183;-83
2022/08/03 12:39:28;;;;;;;4.10;3.90;;;41.70;37.60;;;;;;5037596;28;20182;-83
2022/08/03 12:41:55;;;;;;;5.72;5.30;;;41.30;37.40;;;;;;5039111;28;20234;-84